Time;durP1;ratioP1;P1;durP2;ratioP2;P2;SDS_P1;SDS_P2;PMS_P1;PMS_P2;Temp;Humidity;BMP_temperature;BMP_pressure;BME280_temperature;BME280_humidity;BME280_pressure;Samples;Min_cycle;Max_cycle;Signal;HPM_P1;HPM_P2
2022/08/28 00:02:20;;;;;;;32.33;13.07;;;;;;;;;;5074476;28;20020;-76
2022/08/28 00:04:45;;;;;;;22.23;12.13;;;666.50;2432.00;;;;;;5074131;28;20027;-76
2022/08/28 00:07:11;;;;;;;22.83;12.20;;;666.30;2432.00;;;;;;5073791;28;20028;-76
2022/08/28 00:09:37;;;;;;;21.33;12.38;;;666.30;2432.00;;;;;;5074432;28;20043;-76
2022/08/28 00:12:04;;;;;;;24.13;12.52;;;666.30;2432.00;;;;;;5074162;28;20024;-77
2022/08/28 00:14:30;;;;;;;27.58;13.43;;;666.20;2432.00;;;;;;5074048;28;20173;-76
2022/08/28 00:16:56;;;;;;;25.77;12.48;;;666.10;2432.00;;;;;;5073887;28;20505;-76
2022/08/28 00:19:22;;;;;;;25.50;12.80;;;666.20;2432.00;;;;;;5074058;28;20048;-78
2022/08/28 00:21:49;;;;;;;26.27;12.20;;;666.10;2432.00;;;;;;5073636;28;20054;-77
2022/08/28 00:24:16;;;;;;;26.23;12.15;;;666.00;2432.00;;;;;;5071111;28;20021;-77
2022/08/28 00:29:27;;;;;;;21.50;12.18;;;666.20;2432.00;;;;;;5071884;28;20059;-76
2022/08/28 00:31:52;;;;;;;20.55;11.43;;;666.10;2432.00;;;;;;5073725;28;20012;-76
2022/08/28 00:34:18;;;;;;;21.40;12.60;;;666.20;2432.00;;;;;;5047349;28;20081;-75
2022/08/28 00:36:44;;;;;;;23.20;12.52;;;666.20;2432.00;;;;;;5073659;28;20133;-76
2022/08/28 00:39:10;;;;;;;22.60;12.00;;;666.20;2432.00;;;;;;5073563;28;20029;-76
2022/08/28 00:41:39;;;;;;;27.77;12.70;;;666.10;2432.00;;;;;;5073742;28;20017;-77
2022/08/28 00:44:12;;;;;;;21.23;12.65;;;666.10;2432.00;;;;;;5073497;28;20028;-75
2022/08/28 00:46:39;;;;;;;16.10;11.65;;;666.00;2432.00;;;;;;5067018;28;20483;-75
2022/08/28 00:49:05;;;;;;;19.27;13.15;;;665.90;2432.00;;;;;;5073533;28;20099;-77
2022/08/28 00:54:18;;;;;;;30.02;12.98;;;665.80;2432.00;;;;;;5070892;28;20023;-76
2022/08/28 00:56:46;;;;;;;19.13;13.60;;;665.70;2432.00;;;;;;5046371;28;20040;-75
2022/08/28 00:59:14;;;;;;;28.45;13.63;;;665.70;2432.00;;;;;;5073141;28;20043;-75
2022/08/28 01:01:40;;;;;;;30.95;13.60;;;665.70;2432.00;;;;;;5070868;28;20020;-76
2022/08/28 01:04:07;;;;;;;30.23;13.15;;;665.80;2432.00;;;;;;5073079;28;20021;-76
2022/08/28 01:06:34;;;;;;;19.60;11.90;;;665.80;2432.00;;;;;;5072896;28;20032;-75
2022/08/28 01:09:00;;;;;;;21.48;13.35;;;665.80;2432.00;;;;;;5070438;28;20038;-76
2022/08/28 01:11:27;;;;;;;33.58;13.23;;;665.70;2432.00;;;;;;5073069;28;20469;-76
2022/08/28 01:13:55;;;;;;;25.45;13.65;;;665.80;2432.00;;;;;;5054696;28;20128;-76
2022/08/28 01:16:22;;;;;;;25.20;12.45;;;665.70;2432.00;;;;;;5072885;28;20025;-76
2022/08/28 01:18:50;;;;;;;25.33;13.18;;;665.90;2432.00;;;;;;5070964;28;20103;-76
2022/08/28 01:21:26;;;;;;;28.42;12.93;;;665.80;2432.00;;;;;;5064062;28;20028;-76
2022/08/28 01:23:52;;;;;;;;;;;665.90;2432.00;;;;;;5047040;28;20024;-76
2022/08/28 01:26:18;;;;;;;24.38;13.93;;;665.90;2432.00;;;;;;5072274;28;19920;-77
2022/08/28 01:28:44;;;;;;;20.67;13.00;;;665.70;2432.00;;;;;;5072835;28;20028;-76
2022/08/28 01:31:11;;;;;;;28.35;13.23;;;665.80;2432.00;;;;;;5072389;28;20028;-78
2022/08/28 01:33:38;;;;;;;17.95;12.93;;;665.70;2432.00;;;;;;5072643;28;20024;-76
2022/08/28 01:36:04;;;;;;;22.38;13.85;;;665.80;2432.00;;;;;;5054272;28;20025;-76
2022/08/28 01:38:30;;;;;;;17.42;13.15;;;665.90;2432.00;;;;;;5054008;28;20025;-77
2022/08/28 01:40:56;;;;;;;26.90;14.80;;;665.70;2432.00;;;;;;5072522;28;20033;-77
2022/08/28 01:43:25;;;;;;;22.08;13.32;;;665.70;2432.00;;;;;;5072472;28;20013;-77
2022/08/28 01:45:56;;;;;;;25.90;15.18;;;665.60;2432.00;;;;;;5072420;28;20118;-77
2022/08/28 01:48:24;;;;;;;22.73;13.60;;;640.90;2432.00;;;;;;5049209;28;20386;-78
2022/08/28 01:50:51;;;;;;;25.65;14.38;;;640.90;2432.00;;;;;;5072410;28;20020;-75
2022/08/28 01:53:20;;;;;;;26.00;15.63;;;640.70;2432.00;;;;;;5071697;28;20545;-75
2022/08/28 01:55:46;;;;;;;30.75;15.05;;;640.60;2432.00;;;;;;5072037;28;20044;-76
2022/08/28 01:58:12;;;;;;;26.65;14.45;;;640.60;2432.00;;;;;;5070597;28;20425;-76
2022/08/28 02:00:38;;;;;;;31.52;16.42;;;640.60;2432.00;;;;;;5071760;28;20020;-75
2022/08/28 02:03:05;;;;;;;25.58;14.70;;;640.60;2432.00;;;;;;5072226;28;20099;-76
2022/08/28 02:05:32;;;;;;;25.30;15.00;;;640.60;2432.00;;;;;;5071862;28;20028;-78
2022/08/28 02:08:00;;;;;;;30.77;15.23;;;640.60;2432.00;;;;;;5072139;28;20024;-76
2022/08/28 02:10:27;;;;;;;26.65;14.95;;;640.60;2432.00;;;;;;5071786;28;20020;-76
2022/08/28 02:12:55;;;;;;;21.77;15.45;;;640.60;2432.00;;;;;;5071882;28;20028;-76
2022/08/28 02:15:22;;;;;;;25.27;14.95;;;640.60;2432.00;;;;;;5071400;28;20024;-76
2022/08/28 02:17:48;;;;;;;32.60;15.63;;;640.60;2432.00;;;;;;5071969;28;20043;-76
2022/08/28 02:20:14;;;;;;;23.25;15.10;;;640.60;2432.00;;;;;;5071596;28;20060;-76
2022/08/28 02:22:40;;;;;;;25.60;14.48;;;640.60;2432.00;;;;;;5071415;28;20474;-78
2022/08/28 02:25:08;;;;;;;20.75;13.82;;;640.60;2432.00;;;;;;5071658;28;20028;-76
2022/08/28 02:27:34;;;;;;;22.83;13.90;;;640.40;2432.00;;;;;;5045354;28;20033;-76
2022/08/28 02:30:00;;;;;;;35.63;15.05;;;640.30;2432.00;;;;;;5045038;28;20025;-75
2022/08/28 02:32:27;;;;;;;20.70;13.80;;;615.20;2432.00;;;;;;5055474;28;20035;-76
2022/08/28 02:34:53;;;;;;;25.08;14.45;;;640.40;2432.00;;;;;;5071666;28;20090;-75
2022/08/28 02:37:20;;;;;;;26.48;15.10;;;640.30;2432.00;;;;;;5071161;28;20055;-75
2022/08/28 02:39:46;;;;;;;25.52;14.68;;;640.20;2432.00;;;;;;5071601;28;20008;-77
2022/08/28 02:42:12;;;;;;;25.90;15.10;;;640.00;2432.00;;;;;;5071388;28;20051;-77
2022/08/28 02:44:38;;;;;;;26.45;14.80;;;615.30;2432.00;;;;;;5045044;28;20497;-76
2022/08/28 02:47:04;;;;;;;21.75;15.45;;;615.30;2432.00;;;;;;5071367;28;20119;-76
2022/08/28 02:49:30;;;;;;;29.05;14.73;;;615.20;2432.00;;;;;;5071188;28;20017;-75
2022/08/28 02:51:57;;;;;;;22.95;15.85;;;615.10;2432.00;;;;;;5071201;28;20028;-76
2022/08/28 02:54:25;;;;;;;27.50;15.48;;;615.10;2432.00;;;;;;5070492;28;20514;-75
2022/08/28 02:56:54;;;;;;;22.92;15.88;;;615.00;2432.00;;;;;;5069236;28;20052;-76
2022/08/28 02:59:20;;;;;;;24.20;16.00;;;614.80;2432.00;;;;;;5070970;28;20467;-75
2022/08/28 03:01:46;;;;;;;29.58;17.02;;;614.80;2432.00;;;;;;5045036;28;20027;-76
2022/08/28 03:04:11;;;;;;;28.67;15.80;;;614.80;2432.00;;;;;;5069884;28;20012;-77
2022/08/28 03:06:37;;;;;;;25.55;16.60;;;614.80;2432.00;;;;;;5071287;28;20032;-75
2022/08/28 03:09:04;;;;;;;30.98;17.45;;;614.60;2432.00;;;;;;5070790;28;20074;-77
2022/08/28 03:11:30;;;;;;;28.40;16.30;;;614.60;2432.00;;;;;;5044482;28;20033;-76
2022/08/28 03:13:56;;;;;;;25.58;15.20;;;614.70;2432.00;;;;;;5070827;28;20048;-75
2022/08/28 03:16:23;;;;;;;27.45;16.17;;;614.90;2432.00;;;;;;5070852;28;20037;-76
2022/08/28 03:18:50;;;;;;;26.25;16.30;;;614.90;2432.00;;;;;;5071173;28;20489;-76
2022/08/28 03:21:15;;;;;;;24.23;15.93;;;614.40;2432.00;;;;;;5070837;28;20107;-75
2022/08/28 03:23:41;;;;;;;28.30;16.00;;;615.10;2432.00;;;;;;5071050;28;20139;-75
2022/08/28 03:26:10;;;;;;;25.77;15.68;;;615.10;2432.00;;;;;;5068181;28;20525;-76
2022/08/28 03:28:46;;;;;;;28.17;16.20;;;615.20;2432.00;;;;;;5071057;28;20025;-76
2022/08/28 03:31:16;;;;;;;23.75;16.65;;;615.20;2432.00;;;;;;5042757;28;20025;-77
2022/08/28 03:33:43;;;;;;;23.70;16.95;;;615.20;2432.00;;;;;;5044345;28;20031;-76
2022/08/28 03:36:11;;;;;;;30.05;17.73;;;615.20;2432.00;;;;;;5071226;28;20024;-76
2022/08/28 03:38:37;;;;;;;32.60;18.25;;;615.30;2432.00;;;;;;5044383;28;20028;-75
2022/08/28 03:41:08;;;;;;;29.98;18.17;;;615.00;2432.00;;;;;;5070909;28;20505;-75
2022/08/28 03:43:34;;;;;;;26.02;18.25;;;615.30;2432.00;;;;;;5044427;28;20119;-77
2022/08/28 03:46:03;;;;;;;36.40;19.17;;;615.10;2432.00;;;;;;5070875;28;20111;-76
2022/08/28 03:48:33;;;;;;;23.50;17.77;;;615.00;2432.00;;;;;;5064454;28;20025;-75
2022/08/28 03:50:59;;;;;;;29.48;17.58;;;615.00;2432.00;;;;;;5070790;28;20027;-76
2022/08/28 03:53:27;;;;;;;27.33;17.88;;;614.90;2432.00;;;;;;5070311;28;20021;-76
2022/08/28 03:55:54;;;;;;;27.65;17.25;;;615.10;2432.00;;;;;;5070340;28;20048;-77
2022/08/28 03:58:21;;;;;;;32.85;18.30;;;615.00;2432.00;;;;;;5070718;28;20016;-77
2022/08/28 04:00:46;;;;;;;35.47;19.20;;;614.70;2432.00;;;;;;5070454;28;20178;-76
2022/08/28 04:03:13;;;;;;;25.48;18.83;;;614.70;2432.00;;;;;;5070796;28;20506;-76
2022/08/28 04:05:43;;;;;;;25.65;19.38;;;589.70;2432.00;;;;;;5047096;28;20028;-76
2022/08/28 04:08:14;;;;;;;29.20;19.13;;;614.60;2432.00;;;;;;5071411;28;20025;-76
2022/08/28 04:10:41;;;;;;;30.70;19.80;;;614.50;2432.00;;;;;;5074313;28;20013;-76
2022/08/28 04:13:07;;;;;;;35.15;19.17;;;614.40;2432.00;;;;;;5055565;28;20058;-75
2022/08/28 04:15:33;;;;;;;23.73;16.83;;;614.40;2432.00;;;;;;5074093;28;20074;-76
2022/08/28 04:17:59;;;;;;;38.10;20.63;;;614.50;2432.00;;;;;;5073882;28;20016;-77
2022/08/28 04:20:25;;;;;;;32.95;20.85;;;589.70;2432.00;;;;;;5073967;28;20101;-76
2022/08/28 04:22:51;;;;;;;35.40;20.95;;;589.60;2432.00;;;;;;5055711;28;20023;-77
2022/08/28 04:25:17;;;;;;;30.00;19.30;;;589.40;2432.00;;;;;;5073858;28;20017;-77
2022/08/28 04:27:43;;;;;;;31.95;20.65;;;589.60;2432.00;;;;;;5073762;28;20042;-76
2022/08/28 04:30:10;;;;;;;30.35;19.98;;;589.70;2432.00;;;;;;5046855;28;20112;-76
2022/08/28 04:32:37;;;;;;;30.52;21.13;;;589.60;2432.00;;;;;;5069730;28;20094;-75
2022/08/28 04:35:05;;;;;;;32.08;20.75;;;589.60;2432.00;;;;;;5061743;28;20044;-76
2022/08/28 04:37:31;;;;;;;26.20;19.88;;;589.70;2432.00;;;;;;5067355;28;20017;-77
2022/08/28 04:39:57;;;;;;;26.13;19.25;;;614.40;2432.00;;;;;;5073498;28;20458;-76
2022/08/28 04:42:23;;;;;;;29.60;20.50;;;614.40;2432.00;;;;;;5073663;28;20044;-78
2022/08/28 04:44:49;;;;;;;42.63;21.95;;;589.70;2432.00;;;;;;5073391;28;20059;-79
2022/08/28 04:47:15;;;;;;;28.70;21.85;;;589.70;2432.00;;;;;;5073783;28;20542;-77
2022/08/28 04:49:41;;;;;;;34.67;21.27;;;589.70;2432.00;;;;;;5073479;28;20074;-79
2022/08/28 04:52:07;;;;;;;31.02;20.48;;;589.70;2432.00;;;;;;5073502;28;20081;-76
2022/08/28 04:54:34;;;;;;;38.13;23.17;;;614.40;2432.00;;;;;;5072935;28;20020;-77
2022/08/28 04:57:01;;;;;;;37.88;22.80;;;614.50;2432.00;;;;;;5047126;28;20036;-77
2022/08/28 04:59:28;;;;;;;31.00;21.00;;;614.50;2432.00;;;;;;5056996;28;20359;-76
2022/08/28 05:01:55;;;;;;;34.55;21.83;;;614.60;2432.00;;;;;;5046928;28;20020;-77
2022/08/28 05:04:20;;;;;;;29.90;21.27;;;614.70;2432.00;;;;;;5074021;28;20020;-82
2022/08/28 05:06:47;;;;;;;28.55;20.25;;;614.90;2432.00;;;;;;5049502;28;20041;-78
2022/08/28 05:09:18;;;;;;;27.30;20.13;;;614.90;2432.00;;;;;;5050514;28;20032;-79
2022/08/28 05:11:45;;;;;;;32.20;21.73;;;614.90;2432.00;;;;;;5049894;28;20039;-81
2022/08/28 05:14:13;;;;;;;26.70;19.98;;;614.90;2432.00;;;;;;5055064;28;20041;-78
2022/08/28 05:16:42;;;;;;;32.33;21.35;;;614.90;2432.00;;;;;;5046851;28;20029;-80
2022/08/28 05:19:08;;;;;;;35.20;20.75;;;615.10;2432.00;;;;;;5073182;28;20444;-79
2022/08/28 05:21:34;;;;;;;32.13;19.75;;;615.20;2432.00;;;;;;5070548;28;20020;-77
2022/08/28 05:24:00;;;;;;;28.00;20.75;;;615.30;2432.00;;;;;;5060092;28;20029;-79
2022/08/28 05:26:27;;;;;;;30.63;20.15;;;640.00;2432.00;;;;;;5051361;28;20086;-78
2022/08/28 05:28:54;;;;;;;31.98;19.33;;;640.10;2432.00;;;;;;5046649;28;20509;-76
2022/08/28 05:31:21;;;;;;;29.08;19.80;;;640.10;2432.00;;;;;;5072759;28;20017;-78
2022/08/28 05:33:48;;;;;;;26.60;19.17;;;640.30;2432.00;;;;;;5072814;28;20517;-79
2022/08/28 05:36:16;;;;;;;31.92;20.13;;;640.30;2432.00;;;;;;5072820;28;20025;-77
2022/08/28 05:38:43;;;;;;;31.55;20.52;;;640.30;2432.00;;;;;;5072553;28;20051;-78
2022/08/28 05:41:09;;;;;;;31.40;20.77;;;640.20;2432.00;;;;;;5046318;28;20504;-77
2022/08/28 05:43:35;;;;;;;28.33;20.63;;;640.30;2432.00;;;;;;5049161;28;20031;-74
2022/08/28 05:46:09;;;;;;;35.28;20.55;;;640.40;2432.00;;;;;;5072153;28;20044;-77
2022/08/28 05:48:35;;;;;;;25.17;20.63;;;640.40;2432.00;;;;;;5043715;28;20032;-78
2022/08/28 05:51:07;;;;;;;39.72;20.65;;;640.20;2432.00;;;;;;5054382;28;20099;-80
2022/08/28 05:53:41;;;;;;;30.95;20.77;;;640.30;2432.00;;;;;;5071976;28;20012;-78
2022/08/28 05:56:08;;;;;;;26.73;21.15;;;640.30;2432.00;;;;;;5071494;28;20057;-76
2022/08/28 05:58:34;;;;;;;31.20;20.95;;;640.10;2432.00;;;;;;5071676;28;20144;-77
2022/08/28 06:01:11;;;;;;;33.90;20.67;;;640.40;2432.00;;;;;;5071299;28;20752;-80
2022/08/28 06:03:38;;;;;;;28.90;20.63;;;640.40;2432.00;;;;;;5053937;28;20028;-81
2022/08/28 06:06:05;;;;;;;30.25;21.45;;;640.50;2432.00;;;;;;5059954;28;20037;-84
2022/08/28 06:08:31;;;;;;;29.35;20.35;;;640.60;2432.00;;;;;;5054733;28;20070;-81
2022/08/28 06:11:00;;;;;;;29.15;19.83;;;640.60;2432.00;;;;;;5071963;28;20043;-76
2022/08/28 06:13:26;;;;;;;31.42;20.85;;;640.60;2432.00;;;;;;5072255;28;20013;-82
2022/08/28 06:15:52;;;;;;;27.63;19.55;;;640.70;2432.00;;;;;;5071980;28;20039;-79
2022/08/28 06:18:18;;;;;;;29.05;19.52;;;640.70;2432.00;;;;;;5072271;28;20024;-77
2022/08/28 06:20:45;;;;;;;27.20;19.20;;;640.70;2432.00;;;;;;5048691;28;20024;-78
2022/08/28 06:23:15;;;;;;;28.08;18.85;;;640.70;2432.00;;;;;;5054783;28;20384;-80
2022/08/28 06:25:45;;;;;;;27.95;19.40;;;640.90;2432.00;;;;;;5054388;28;20032;-79
2022/08/28 06:28:13;;;;;;;25.63;20.65;;;665.60;2432.00;;;;;;5054299;28;20052;-78
2022/08/28 06:30:40;;;;;;;34.75;20.02;;;665.60;2432.00;;;;;;5072506;28;20382;-78
2022/08/28 06:33:06;;;;;;;27.25;18.88;;;665.60;2432.00;;;;;;5049224;28;20104;-78
2022/08/28 06:35:33;;;;;;;27.30;18.55;;;665.80;2432.00;;;;;;5046091;28;20024;-78
2022/08/28 06:37:59;;;;;;;29.95;19.17;;;666.00;2432.00;;;;;;5072179;28;20534;-79
2022/08/28 06:40:26;;;;;;;27.42;18.08;;;666.00;2432.00;;;;;;5054600;28;20059;-79
2022/08/28 06:42:52;;;;;;;31.25;19.67;;;666.10;2432.00;;;;;;5056525;28;20128;-77
2022/08/28 06:45:18;;;;;;;29.88;19.08;;;666.20;2432.00;;;;;;5060151;28;20096;-79
2022/08/28 06:47:45;;;;;;;24.65;18.13;;;666.40;2432.00;;;;;;5071047;28;20035;-80
2022/08/28 06:50:11;;;;;;;28.67;18.25;;;666.50;2432.00;;;;;;5071810;28;20016;-78
2022/08/28 06:52:37;;;;;;;28.42;18.08;;;666.50;2432.00;;;;;;5069612;28;20055;-77
2022/08/28 06:55:03;;;;;;;24.05;17.40;;;691.20;2432.00;;;;;;5071680;28;20044;-77
2022/08/28 06:57:28;;;;;;;36.92;16.70;;;691.30;2432.00;;;;;;5037325;28;20021;-77
2022/08/28 06:59:56;;;;;;;23.42;17.23;;;691.30;2432.00;;;;;;5072104;28;20048;-77
2022/08/28 07:02:22;;;;;;;27.42;17.83;;;691.40;2432.00;;;;;;5072215;28;20021;-81
2022/08/28 07:04:52;;;;;;;25.30;16.17;;;691.60;2432.00;;;;;;5067938;28;20024;-78
2022/08/28 07:07:19;;;;;;;25.30;16.90;;;691.50;2432.00;;;;;;5063215;28;20540;-79
2022/08/28 07:09:46;;;;;;;27.50;18.05;;;691.60;2432.00;;;;;;5071707;28;20056;-77
2022/08/28 07:12:16;;;;;;;22.35;16.30;;;691.70;2432.00;;;;;;5044954;28;20033;-79
2022/08/28 07:14:43;;;;;;;29.40;17.45;;;691.50;2432.00;;;;;;5067043;28;20501;-82
2022/08/28 07:17:09;;;;;;;32.50;17.98;;;691.80;2432.00;;;;;;5071852;28;20082;-78
2022/08/28 07:19:36;;;;;;;32.30;17.00;;;691.80;2432.00;;;;;;5071925;28;20103;-79
2022/08/28 07:22:03;;;;;;;35.42;17.35;;;691.80;2432.00;;;;;;5054014;28;20021;-80
2022/08/28 07:24:29;;;;;;;25.38;16.67;;;691.90;2432.00;;;;;;5053883;28;20119;-82
2022/08/28 07:26:55;;;;;;;27.10;16.40;;;692.10;2432.00;;;;;;5053838;28;20068;-77
2022/08/28 07:29:21;;;;;;;20.90;15.85;;;692.10;2432.00;;;;;;5072174;28;20055;-78
2022/08/28 07:31:49;;;;;;;29.50;16.08;;;716.80;2432.00;;;;;;5054017;28;20446;-80
2022/08/28 07:34:18;;;;;;;23.52;16.20;;;716.80;2432.00;;;;;;5054287;28;20031;-83
2022/08/28 07:36:43;;;;;;;20.70;15.82;;;716.90;2432.00;;;;;;5053603;28;20052;-79
2022/08/28 07:39:11;;;;;;;27.00;16.17;;;716.90;2432.00;;;;;;5055099;28;20052;-80
2022/08/28 07:41:41;;;;;;;21.15;15.25;;;716.90;2432.00;;;;;;5057830;28;20074;-78
2022/08/28 07:46:59;;;;;;;25.20;15.27;;;717.00;2432.00;;;;;;5061696;28;20395;-76
2022/08/28 07:49:25;;;;;;;35.08;16.20;;;717.10;2432.00;;;;;;5075605;28;20021;-81
2022/08/28 07:51:51;;;;;;;22.65;15.35;;;717.20;2432.00;;;;;;5075419;28;20082;-78
2022/08/28 07:54:16;;;;;;;27.10;14.27;;;717.20;2432.00;;;;;;5075269;28;20461;-78
2022/08/28 07:56:42;;;;;;;32.38;14.85;;;717.20;2432.00;;;;;;5044117;28;20132;-80
2022/08/28 07:59:10;;;;;;;20.33;14.88;;;717.30;2432.00;;;;;;5053641;28;20037;-78
2022/08/28 08:01:39;;;;;;;25.83;13.52;;;717.30;2432.00;;;;;;5053407;28;20032;-80
2022/08/28 08:04:11;;;;;;;23.65;14.77;;;717.40;2432.00;;;;;;5042421;28;20044;-81
2022/08/28 08:06:39;;;;;;;24.58;14.00;;;717.40;2432.00;;;;;;5044842;28;20033;-79
2022/08/28 08:09:08;;;;;;;22.83;14.43;;;717.50;2432.00;;;;;;5053076;28;20431;-78
2022/08/28 08:11:34;;;;;;;21.48;14.00;;;717.50;2432.00;;;;;;5052930;28;20402;-77
2022/08/28 08:14:03;;;;;;;22.23;14.23;;;717.60;2432.00;;;;;;5054161;28;20356;-79
2022/08/28 08:16:29;;;;;;;25.15;12.73;;;717.60;2432.00;;;;;;5051717;28;20044;-78
2022/08/28 08:18:56;;;;;;;23.75;14.30;;;717.60;2432.00;;;;;;5054022;28;20021;-77
2022/08/28 08:21:23;;;;;;;21.90;13.43;;;742.40;2432.00;;;;;;5054262;28;20059;-77
2022/08/28 08:23:49;;;;;;;25.02;13.85;;;742.60;2432.00;;;;;;5051479;28;20013;-79
2022/08/28 08:26:18;;;;;;;21.08;12.27;;;742.50;2432.00;;;;;;5054034;28;20116;-78
2022/08/28 08:28:44;;;;;;;19.88;13.48;;;742.50;2432.00;;;;;;5043767;28;20049;-77
2022/08/28 08:31:13;;;;;;;22.92;13.15;;;742.50;2432.00;;;;;;5053676;28;20352;-79
2022/08/28 08:33:42;;;;;;;27.95;13.00;;;742.60;2432.00;;;;;;5054011;28;20037;-78
2022/08/28 08:36:10;;;;;;;31.88;12.88;;;742.60;2432.00;;;;;;5053735;28;20024;-77
2022/08/28 08:38:36;;;;;;;25.85;12.68;;;742.60;2432.00;;;;;;5052087;28;20041;-76
2022/08/28 08:41:32;;;;;;;29.00;13.05;;;742.70;2432.00;;;;;;5053458;28;20017;-76
2022/08/28 08:44:09;;;;;;;28.50;12.20;;;;;;;;;;5051799;28;20021;-76
2022/08/28 08:46:44;;;;;;;22.80;12.43;;;742.70;2432.00;;;;;;5051739;28;20457;-76
2022/08/28 08:49:17;;;;;;;27.48;13.00;;;742.90;2432.00;;;;;;5038550;28;20025;-76
2022/08/28 08:51:51;;;;;;;20.90;11.85;;;742.90;2432.00;;;;;;5044531;28;20468;-78
2022/08/28 08:54:20;;;;;;;27.52;12.13;;;742.90;2432.00;;;;;;5047480;28;20021;-77
2022/08/28 08:56:47;;;;;;;25.48;12.07;;;743.00;2432.00;;;;;;5053852;28;20506;-78
2022/08/28 08:59:17;;;;;;;26.95;12.10;;;743.00;2432.00;;;;;;5052905;28;20040;-78
2022/08/28 09:01:46;;;;;;;22.38;11.88;;;743.10;2432.00;;;;;;5047245;28;20022;-76
2022/08/28 09:04:38;;;;;;;19.65;11.50;;;743.10;2432.00;;;;;;5045662;28;20425;-79
2022/08/28 09:07:18;;;;;;;22.98;11.68;;;743.30;2432.00;;;;;;5032605;28;20083;-77
2022/08/28 09:09:53;;;;;;;20.33;10.55;;;743.30;2432.00;;;;;;5049559;28;20074;-77
2022/08/28 09:12:26;;;;;;;19.70;11.63;;;768.00;2432.00;;;;;;5053628;28;20052;-77
2022/08/28 09:15:07;;;;;;;21.73;10.75;;;768.10;2252.80;;;;;;5053252;28;20374;-78
2022/08/28 09:17:43;;;;;;;15.93;10.32;;;768.10;2252.80;;;;;;5041119;28;20498;-79
2022/08/28 09:20:12;;;;;;;15.90;10.23;;;768.20;2329.60;;;;;;5050025;28;20016;-74
2022/08/28 09:22:44;;;;;;;19.45;10.43;;;768.40;2304.00;;;;;;5052917;28;20463;-77
2022/08/28 09:25:11;;;;;;;19.27;12.00;;;768.50;2227.20;;;;;;5049025;28;20029;-77
2022/08/28 09:27:51;;;;;;;19.83;11.40;;;768.60;2176.00;;;;;;5053335;28;20033;-78
2022/08/28 09:30:29;;;;;;;17.67;10.25;;;768.80;2176.00;;;;;;5052149;28;20047;-77
2022/08/28 09:32:59;;;;;;;22.67;10.45;;;768.90;2124.80;;;;;;5053131;28;20070;-78
2022/08/28 09:35:26;;;;;;;28.48;11.27;;;793.60;2124.80;;;;;;5042608;28;20049;-77
2022/08/28 09:37:52;;;;;;;25.08;11.65;;;793.70;2048.00;;;;;;5049095;28;20028;-78
2022/08/28 09:43:25;;;;;;;20.52;10.68;;;793.90;2022.40;;;;;;5052004;28;20112;-77
2022/08/28 09:43:26;;;;;;;19.88;9.27;;;794.00;1996.80;;;;;;5053060;28;20048;-77
2022/08/28 09:45:58;;;;;;;28.17;10.25;;;794.10;1843.20;;;;;;5053028;28;20037;-77
2022/08/28 09:48:46;;;;;;;20.15;10.15;;;794.20;1920.00;;;;;;5052450;28;20074;-77
2022/08/28 09:51:21;;;;;;;20.23;10.57;;;794.50;1996.80;;;;;;5053025;28;20076;-78
2022/08/28 09:53:49;;;;;;;20.02;10.45;;;819.20;2124.80;;;;;;5052486;28;20025;-77
2022/08/28 09:56:38;;;;;;;16.73;9.20;;;819.30;1868.80;;;;;;5068305;28;20073;-77
2022/08/28 09:59:04;;;;;;;16.58;10.20;;;819.30;1817.60;;;;;;5073005;28;20513;-77
2022/08/28 10:01:44;;;;;;;17.50;9.23;;;819.60;1817.60;;;;;;5072481;28;20103;-79
2022/08/28 10:04:16;;;;;;;21.60;9.90;;;819.60;1817.60;;;;;;5054232;28;20027;-77
2022/08/28 10:07:05;;;;;;;20.02;10.35;;;819.80;1766.40;;;;;;5072597;28;20031;-78
2022/08/28 10:10:12;;;;;;;14.30;9.43;;;820.10;1792.00;;;;;;4991115;28;20167;-79
2022/08/28 10:12:44;;;;;;;20.58;10.23;;;820.00;1792.00;;;;;;4990915;28;20054;-78
2022/08/28 10:15:21;;;;;;;16.52;10.05;;;820.10;1792.00;;;;;;4991067;28;20035;-77
2022/08/28 10:18:13;;;;;;;17.27;9.85;;;845.00;1740.80;;;;;;4974933;28;20403;-77
2022/08/28 10:21:04;;;;;;;18.77;9.68;;;845.20;1740.80;;;;;;4991094;28;20071;-77
2022/08/28 10:23:48;;;;;;;14.52;8.00;;;845.40;1664.00;;;;;;4973990;28;20026;-78
2022/08/28 10:26:25;;;;;;;18.30;9.00;;;845.40;1587.20;;;;;;4990704;28;20120;-78
2022/08/28 10:29:24;;;;;;;22.50;8.95;;;845.60;1638.40;;;;;;4991004;28;20039;-77
2022/08/28 10:31:53;;;;;;;20.65;8.27;;;845.70;1536.00;;;;;;4990898;28;20041;-77
2022/08/28 10:34:41;;;;;;;15.27;7.88;;;870.50;1433.60;;;;;;4990774;28;20061;-76
2022/08/28 10:37:33;;;;;;;17.02;8.98;;;870.70;1459.20;;;;;;4971311;28;20026;-76
2022/08/28 10:40:07;;;;;;;23.48;9.70;;;870.70;1484.80;;;;;;4968715;28;20074;-76
2022/08/28 10:42:45;;;;;;;17.80;9.18;;;870.90;1459.20;;;;;;4990462;28;20504;-77
2022/08/28 10:45:18;;;;;;;22.10;8.48;;;871.10;1459.20;;;;;;4989664;28;20423;-77
2022/08/28 10:47:50;;;;;;;21.13;9.35;;;871.10;1408.00;;;;;;5060016;28;20064;-77
2022/08/28 10:50:26;;;;;;;19.65;8.10;;;871.20;1356.80;;;;;;5057629;28;20023;-77
2022/08/28 10:53:05;;;;;;;20.02;8.65;;;871.20;1356.80;;;;;;5071835;28;20070;-77
2022/08/28 10:55:38;;;;;;;18.58;9.52;;;871.30;1433.60;;;;;;5053274;28;20048;-77
2022/08/28 10:58:06;;;;;;;22.52;9.70;;;896.20;1459.20;;;;;;5068493;28;20017;-76
2022/08/28 11:00:33;;;;;;;15.75;9.38;;;896.30;1433.60;;;;;;5045012;28;20021;-79
2022/08/28 11:03:10;;;;;;;16.70;9.50;;;896.20;1433.60;;;;;;5044738;28;20017;-76
2022/08/28 11:05:47;;;;;;;14.65;10.10;;;896.50;1408.00;;;;;;5070846;28;20086;-75
2022/08/28 11:08:29;;;;;;;22.40;9.93;;;896.50;1356.80;;;;;;5071958;28;20033;-76
2022/08/28 11:11:00;;;;;;;18.77;10.32;;;896.60;1382.40;;;;;;5071572;28;20091;-74
2022/08/28 11:13:38;;;;;;;18.35;9.57;;;896.90;1408.00;;;;;;5054088;28;20032;-77
2022/08/28 11:16:34;;;;;;;16.35;8.18;;;896.90;1382.40;;;;;;5075886;28;20016;-78
2022/08/28 11:19:27;;;;;;;24.83;10.07;;;921.60;1331.20;;;;;;5057888;28;20036;-76
2022/08/28 11:22:07;;;;;;;20.63;9.75;;;921.60;1331.20;;;;;;5046528;28;20029;-76
2022/08/28 11:24:38;;;;;;;23.35;9.65;;;921.60;1331.20;;;;;;5055941;28;20040;-75
2022/08/28 11:27:33;;;;;;;15.27;8.90;;;921.70;1382.40;;;;;;5075580;28;20036;-75
2022/08/28 11:30:08;;;;;;;20.63;9.90;;;921.70;1356.80;;;;;;5037955;28;20025;-75
2022/08/28 11:32:33;;;;;;;19.10;9.70;;;921.80;1356.80;;;;;;5052266;28;20025;-77
2022/08/28 11:35:26;;;;;;;16.58;9.27;;;922.00;1356.80;;;;;;5057684;28;20025;-75
2022/08/28 11:37:53;;;;;;;19.67;9.23;;;922.00;1305.60;;;;;;5075232;28;20070;-76
2022/08/28 11:40:50;;;;;;;19.75;9.63;;;921.90;1305.60;;;;;;5075186;28;20153;-76
2022/08/28 11:43:17;;;;;;;17.67;9.75;;;922.00;1305.60;;;;;;5043514;28;20066;-75
2022/08/28 11:45:45;;;;;;;21.20;9.65;;;921.90;1305.60;;;;;;5045372;28;20069;-76
2022/08/28 11:48:36;;;;;;;26.42;10.90;;;896.90;1305.60;;;;;;5074351;28;20462;-77
2022/08/28 11:51:43;;;;;;;20.00;8.57;;;921.80;1356.80;;;;;;5074270;28;20024;-75
2022/08/28 11:54:34;;;;;;;15.45;9.48;;;922.00;1356.80;;;;;;4995007;28;20034;-75
2022/08/28 11:57:00;;;;;;;11.98;8.23;;;922.00;1331.20;;;;;;4996834;28;20039;-75
2022/08/28 11:59:34;;;;;;;18.05;9.32;;;922.10;1305.60;;;;;;4992819;28;20046;-75
2022/08/28 12:02:38;;;;;;;22.58;10.25;;;922.30;1280.00;;;;;;4995700;28;20116;-76
2022/08/28 12:05:11;;;;;;;27.40;9.52;;;922.20;1331.20;;;;;;4995557;28;20076;-75
2022/08/28 12:07:39;;;;;;;16.92;9.40;;;922.30;1305.60;;;;;;4992482;28;20408;-75
2022/08/28 12:10:34;;;;;;;22.05;9.90;;;922.40;1331.20;;;;;;4990660;28;20554;-75
2022/08/28 12:13:06;;;;;;;16.15;8.68;;;922.50;1331.20;;;;;;4985069;28;20046;-75
2022/08/28 12:15:32;;;;;;;22.92;10.05;;;922.30;1331.20;;;;;;4993338;28;20022;-75
2022/08/28 12:18:33;;;;;;;19.83;9.60;;;922.40;1331.20;;;;;;4992701;28;20030;-77
2022/08/28 12:21:11;;;;;;;19.50;9.25;;;922.50;1305.60;;;;;;4996387;28;20026;-75
2022/08/28 12:23:39;;;;;;;23.50;8.63;;;922.50;1254.40;;;;;;4985278;28;20046;-77
2022/08/28 12:26:29;;;;;;;14.05;8.45;;;947.40;1280.00;;;;;;5008340;28;20468;-76